Time;durP1;ratioP1;P1;durP2;ratioP2;P2;SDS_P1;SDS_P2;PMS_P1;PMS_P2;Temp;Humidity;BMP_temperature;BMP_pressure;BME280_temperature;BME280_humidity;BME280_pressure;Samples;Min_cycle;Max_cycle;Signal;HPM_P1;HPM_P2
2022/04/22 00:00:45;;;;;;;12.63;5.90;;;8.50;96.30;;;;;;5063399;28;20052;-68
2022/04/22 00:03:13;;;;;;;15.35;6.65;;;8.40;96.30;;;;;;5050454;28;20483;-67
2022/04/22 00:05:41;;;;;;;10.07;5.97;;;8.40;96.70;;;;;;5059268;28;20052;-68
2022/04/22 00:08:08;;;;;;;11.85;6.25;;;8.30;96.80;;;;;;5062812;28;20036;-67
2022/04/22 00:11:28;;;;;;;10.18;5.68;;;8.30;97.10;;;;;;5050118;28;20045;-67
2022/04/22 00:13:26;;;;;;;12.35;6.50;;;8.20;97.30;;;;;;5048514;28;20448;-63
2022/04/22 00:15:54;;;;;;;11.27;6.88;;;8.20;97.50;;;;;;5052937;28;20049;-62
2022/04/22 00:18:22;;;;;;;12.45;5.88;;;8.10;97.80;;;;;;5055991;28;20044;-63
2022/04/22 00:20:50;;;;;;;14.07;6.63;;;8.10;98.40;;;;;;5062774;28;20045;-63
2022/04/22 00:23:18;;;;;;;12.32;6.32;;;8.10;98.70;;;;;;5049107;28;20068;-62
2022/04/22 00:25:45;;;;;;;11.23;5.80;;;8.10;98.90;;;;;;5049151;28;20053;-63
2022/04/22 00:28:13;;;;;;;11.65;6.13;;;8.10;98.80;;;;;;5054847;28;20052;-63
2022/04/22 00:30:41;;;;;;;14.05;6.55;;;8.00;99.80;;;;;;5065877;28;20048;-63
2022/04/22 00:33:08;;;;;;;12.68;6.40;;;8.00;99.90;;;;;;5063778;28;20063;-63
2022/04/22 00:35:36;;;;;;;13.73;6.10;;;8.00;99.90;;;;;;5049358;28;20049;-63
2022/04/22 00:38:04;;;;;;;13.18;6.32;;;8.00;99.90;;;;;;5053129;28;20498;-62
2022/04/22 00:40:31;;;;;;;11.88;5.95;;;8.00;99.90;;;;;;5064656;28;20055;-62
2022/04/22 00:43:12;;;;;;;12.93;6.45;;;8.00;99.90;;;;;;5049723;28;20431;-66
2022/04/22 00:45:39;;;;;;;16.83;6.90;;;7.90;99.90;;;;;;5049338;28;20488;-66
2022/04/22 00:48:07;;;;;;;14.43;6.45;;;7.80;99.90;;;;;;5052377;28;20044;-66
2022/04/22 00:50:35;;;;;;;12.77;7.00;;;7.80;99.90;;;;;;5069908;28;20060;-66
2022/04/22 00:53:03;;;;;;;11.02;6.13;;;7.70;99.90;;;;;;5065535;28;20033;-63
2022/04/22 00:55:32;;;;;;;12.40;6.63;;;7.70;99.90;;;;;;5052615;28;20044;-63
2022/04/22 00:57:59;;;;;;;10.75;6.57;;;7.70;99.90;;;;;;5049447;28;20521;-62
2022/04/22 01:00:27;;;;;;;12.32;6.38;;;7.60;99.90;;;;;;5062701;28;20423;-64
2022/04/22 01:02:55;;;;;;;11.35;6.60;;;7.60;99.90;;;;;;5066780;28;20065;-64
2022/04/22 01:11:00;;;;;;;15.38;7.72;;;7.40;99.90;;;;;;5058600;28;20377;-63
2022/04/22 01:13:28;;;;;;;14.47;8.07;;;7.50;99.90;;;;;;5068510;28;20056;-62
2022/04/22 01:15:56;;;;;;;16.75;7.85;;;7.40;99.90;;;;;;5068822;28;20071;-62
2022/04/22 01:18:24;;;;;;;18.38;9.00;;;7.40;99.90;;;;;;5067131;28;20028;-67
2022/04/22 01:20:51;;;;;;;18.73;9.63;;;7.40;99.90;;;;;;5053026;28;20056;-64
2022/04/22 01:23:19;;;;;;;24.60;11.27;;;7.30;99.90;;;;;;5054452;28;20396;-66
2022/04/22 01:25:46;;;;;;;22.63;10.75;;;7.40;99.90;;;;;;5054205;28;20044;-66
2022/04/22 01:28:14;;;;;;;23.65;12.18;;;7.30;99.90;;;;;;5051710;28;20044;-64
2022/04/22 01:30:42;;;;;;;27.35;15.75;;;7.40;99.90;;;;;;5054505;28;20044;-63
2022/04/22 01:33:09;;;;;;;33.00;14.85;;;7.40;99.90;;;;;;5056802;28;20064;-63
2022/04/22 01:35:37;;;;;;;31.25;16.33;;;7.30;99.90;;;;;;5058279;28;20045;-63
2022/04/22 01:38:04;;;;;;;28.17;16.17;;;7.30;99.90;;;;;;5067096;28;20048;-62
2022/04/22 01:40:32;;;;;;;35.10;16.80;;;7.30;99.90;;;;;;5074675;28;20055;-62
2022/04/22 01:43:00;;;;;;;35.20;16.40;;;7.30;99.90;;;;;;5073517;28;20076;-64
2022/04/22 01:45:28;;;;;;;33.90;17.00;;;7.30;99.90;;;;;;5070379;28;20818;-63
2022/04/22 01:47:56;;;;;;;37.45;18.67;;;7.30;99.90;;;;;;5055126;28;20531;-65
2022/04/22 01:50:24;;;;;;;35.58;18.60;;;7.30;99.90;;;;;;5054240;28;20045;-63
2022/04/22 01:52:52;;;;;;;37.00;16.33;;;7.30;99.90;;;;;;5054000;28;20488;-67
2022/04/22 01:55:19;;;;;;;37.22;19.10;;;7.20;99.90;;;;;;5054129;28;20048;-65
2022/04/22 01:57:47;;;;;;;47.78;21.85;;;7.20;99.90;;;;;;5053707;28;20051;-64
2022/04/22 02:00:15;;;;;;;40.13;19.95;;;7.10;99.90;;;;;;5056077;28;20045;-64
2022/04/22 02:02:42;;;;;;;45.78;20.25;;;7.10;99.90;;;;;;5054177;28;20059;-62
2022/04/22 02:05:10;;;;;;;42.28;21.38;;;7.10;99.90;;;;;;5053700;28;20060;-62
2022/04/22 02:07:41;;;;;;;48.53;21.33;;;7.00;99.90;;;;;;5061214;28;20476;-63
2022/04/22 02:10:10;;;;;;;42.15;19.63;;;7.00;99.90;;;;;;5072584;28;20048;-66
2022/04/22 02:12:37;;;;;;;33.90;17.83;;;7.00;99.90;;;;;;5053610;28;20044;-63
2022/04/22 02:15:06;;;;;;;41.70;20.65;;;6.90;99.90;;;;;;5053466;28;20052;-64
2022/04/22 02:17:33;;;;;;;39.03;19.27;;;6.90;99.90;;;;;;5074067;28;20047;-62
2022/04/22 02:20:01;;;;;;;36.63;19.05;;;6.90;99.90;;;;;;5074110;28;20040;-63
2022/04/22 02:22:29;;;;;;;38.75;18.88;;;6.80;99.90;;;;;;5067747;28;20053;-63
2022/04/22 02:24:57;;;;;;;42.00;19.50;;;6.80;99.90;;;;;;5055341;28;20049;-62
2022/04/22 02:30:11;;;;;;;42.63;19.77;;;6.90;99.90;;;;;;5072771;28;20037;-62
2022/04/22 02:32:39;;;;;;;43.05;20.25;;;6.90;99.90;;;;;;5055792;28;20072;-64
2022/04/22 02:35:07;;;;;;;38.50;19.20;;;6.90;99.90;;;;;;5053129;28;20049;-63
2022/04/22 02:37:35;;;;;;;40.25;18.98;;;6.90;99.90;;;;;;5053665;28;20041;-63
2022/04/22 02:40:03;;;;;;;39.33;19.10;;;7.00;99.90;;;;;;5052848;28;20041;-64
2022/04/22 02:45:29;;;;;;;37.08;18.42;;;7.10;99.90;;;;;;5052854;28;20056;-63
2022/04/22 02:47:57;;;;;;;38.28;19.45;;;7.10;99.90;;;;;;5052270;28;20393;-63
2022/04/22 02:50:24;;;;;;;39.38;19.05;;;7.10;99.90;;;;;;5055691;28;20045;-63
2022/04/22 02:52:52;;;;;;;39.45;17.63;;;7.10;99.90;;;;;;5052800;28;20048;-62
2022/04/22 02:55:19;;;;;;;34.75;18.95;;;7.10;99.90;;;;;;5052456;28;20041;-63
2022/04/22 02:57:47;;;;;;;33.90;17.42;;;7.10;99.90;;;;;;5052602;28;20508;-63
2022/04/22 03:00:15;;;;;;;31.55;16.10;;;7.10;99.90;;;;;;5070114;28;20124;-63
2022/04/22 03:02:43;;;;;;;30.13;16.23;;;7.10;99.90;;;;;;5066931;28;20052;-63
2022/04/22 03:05:11;;;;;;;25.60;14.63;;;7.20;99.90;;;;;;5052488;28;20053;-63
2022/04/22 03:07:39;;;;;;;29.30;15.70;;;7.20;99.90;;;;;;5063681;28;20045;-63
2022/04/22 03:10:07;;;;;;;26.75;14.50;;;7.30;99.90;;;;;;5052934;28;20097;-63
2022/04/22 03:12:35;;;;;;;25.13;14.77;;;7.30;99.90;;;;;;5054308;28;20049;-64
2022/04/22 03:15:03;;;;;;;23.80;13.68;;;7.40;99.90;;;;;;5054812;28;20048;-65
2022/04/22 03:17:31;;;;;;;25.77;14.25;;;7.40;99.90;;;;;;5052743;28;20040;-66
2022/04/22 03:19:59;;;;;;;28.90;13.63;;;7.50;99.90;;;;;;5051141;28;20049;-65
2022/04/22 03:22:27;;;;;;;26.17;13.48;;;7.50;99.90;;;;;;5052548;28;20053;-66
2022/04/22 03:24:54;;;;;;;22.38;13.27;;;7.50;99.90;;;;;;5051283;28;20040;-63
2022/04/22 03:27:22;;;;;;;22.48;13.65;;;7.60;99.90;;;;;;5052377;28;20041;-66
2022/04/22 03:29:50;;;;;;;27.20;13.38;;;7.60;99.90;;;;;;5052028;28;20045;-63
2022/04/22 03:32:17;;;;;;;21.27;12.85;;;7.60;99.90;;;;;;5054019;28;20045;-65
2022/04/22 03:34:45;;;;;;;22.75;13.05;;;7.70;99.90;;;;;;5063441;28;20368;-67
2022/04/22 03:37:12;;;;;;;20.95;12.40;;;7.70;99.90;;;;;;5052378;28;20056;-63
2022/04/22 03:39:40;;;;;;;21.75;10.82;;;7.70;99.90;;;;;;5052182;28;20416;-63
2022/04/22 03:42:08;;;;;;;21.58;11.48;;;7.70;99.90;;;;;;5033954;28;20072;-62
2022/04/22 03:44:36;;;;;;;18.85;12.80;;;7.70;99.90;;;;;;5051073;28;20044;-63
2022/04/22 03:47:07;;;;;;;21.20;10.75;;;7.80;99.90;;;;;;5051979;28;20048;-65
2022/04/22 03:49:35;;;;;;;22.42;11.45;;;7.80;99.90;;;;;;5050965;28;20040;-66
2022/04/22 03:52:03;;;;;;;17.67;10.55;;;7.80;99.90;;;;;;5052111;28;20049;-67
2022/04/22 03:54:30;;;;;;;20.67;11.68;;;7.80;99.90;;;;;;5055105;28;20045;-65
2022/04/22 03:59:45;;;;;;;21.00;11.20;;;7.90;99.90;;;;;;5051571;28;20041;-67
2022/04/22 04:02:13;;;;;;;20.02;10.80;;;7.80;99.90;;;;;;5052035;28;20519;-63
2022/04/22 04:04:40;;;;;;;17.75;10.52;;;7.90;99.90;;;;;;5051752;28;20655;-66
2022/04/22 04:07:08;;;;;;;24.92;11.98;;;7.90;99.90;;;;;;5053683;28;20051;-63
2022/04/22 04:17:54;;;;;;;19.70;12.32;;;8.00;99.90;;;;;;5053045;28;20393;-66
2022/04/22 04:23:14;;;;;;;23.20;13.50;;;8.00;99.90;;;;;;5060973;28;20075;-65
2022/04/22 04:25:43;;;;;;;24.27;13.65;;;8.10;99.90;;;;;;5051590;28;20045;-62
2022/04/22 04:28:11;;;;;;;26.33;13.95;;;8.10;99.90;;;;;;5051675;28;20053;-63
2022/04/22 04:30:40;;;;;;;21.00;13.07;;;8.10;99.90;;;;;;5053435;28;20047;-63
2022/04/22 04:33:08;;;;;;;23.42;12.73;;;8.20;99.90;;;;;;5051360;28;20037;-63
2022/04/22 04:35:38;;;;;;;29.55;12.93;;;8.10;99.90;;;;;;5051210;28;20048;-63
2022/04/22 04:38:07;;;;;;;25.25;13.07;;;8.10;99.90;;;;;;5051287;28;20052;-63
2022/04/22 04:40:35;;;;;;;29.08;13.15;;;8.10;99.90;;;;;;5050075;28;20049;-63
2022/04/22 04:43:05;;;;;;;21.35;12.38;;;8.20;99.90;;;;;;5050980;28;20468;-63
2022/04/22 04:45:34;;;;;;;19.80;11.80;;;8.20;99.90;;;;;;5050325;28;20041;-65
2022/04/22 04:48:02;;;;;;;22.10;11.43;;;8.20;99.90;;;;;;5045745;28;20033;-63
2022/04/22 04:50:30;;;;;;;21.27;11.88;;;8.20;99.90;;;;;;5047702;28;20052;-63
2022/04/22 04:52:58;;;;;;;18.05;11.23;;;8.20;99.90;;;;;;5047427;28;20037;-66
2022/04/22 04:55:27;;;;;;;16.83;11.02;;;8.20;99.90;;;;;;5058222;28;20079;-63
2022/04/22 04:57:55;;;;;;;19.45;10.77;;;8.20;99.90;;;;;;5074653;28;20048;-63
2022/04/22 05:00:23;;;;;;;20.08;10.50;;;8.20;99.90;;;;;;5074812;28;20040;-63
2022/04/22 05:02:50;;;;;;;15.65;9.70;;;8.20;99.90;;;;;;5062297;28;20304;-63
2022/04/22 05:05:18;;;;;;;21.35;10.60;;;8.20;99.90;;;;;;5052057;28;20267;-63
2022/04/22 05:07:51;;;;;;;17.92;10.73;;;8.20;99.90;;;;;;5059589;28;20044;-63
2022/04/22 05:10:19;;;;;;;16.95;8.93;;;8.20;99.90;;;;;;5076087;28;20063;-64
2022/04/22 05:12:48;;;;;;;21.17;9.55;;;8.20;99.90;;;;;;5074744;28;20056;-63
2022/04/22 05:15:17;;;;;;;19.13;9.50;;;8.20;99.90;;;;;;5075772;28;20040;-63
2022/04/22 05:17:46;;;;;;;14.35;8.77;;;8.20;99.90;;;;;;5065951;28;20048;-64
2022/04/22 05:20:16;;;;;;;19.13;9.40;;;8.30;99.90;;;;;;5075956;28;20067;-63
2022/04/22 05:22:44;;;;;;;16.10;8.80;;;8.30;99.90;;;;;;5058203;28;20312;-63
2022/04/22 05:25:14;;;;;;;24.67;9.98;;;8.30;99.90;;;;;;5073684;28;20040;-64
2022/04/22 05:27:42;;;;;;;20.80;11.90;;;8.30;99.90;;;;;;5075683;28;20048;-63
2022/04/22 05:32:57;;;;;;;17.17;9.82;;;8.40;99.90;;;;;;5057473;28;20037;-62
2022/04/22 05:35:27;;;;;;;18.67;9.40;;;8.40;99.90;;;;;;5053323;28;20611;-67
2022/04/22 05:37:59;;;;;;;16.92;9.73;;;8.40;99.90;;;;;;5062897;28;20052;-65
2022/04/22 05:40:30;;;;;;;21.20;10.32;;;8.50;99.90;;;;;;5068118;28;20052;-65
2022/04/22 05:42:58;;;;;;;19.10;10.02;;;8.50;99.90;;;;;;5051471;28;20041;-64
2022/04/22 05:45:27;;;;;;;17.02;10.50;;;8.50;99.90;;;;;;5052685;28;20037;-63
2022/04/22 05:47:59;;;;;;;19.57;9.37;;;8.50;99.90;;;;;;5059805;28;20048;-63
2022/04/22 05:50:27;;;;;;;14.77;9.63;;;8.50;99.90;;;;;;5055565;28;20040;-65
2022/04/22 05:52:55;;;;;;;16.33;8.45;;;8.60;99.90;;;;;;5056040;28;20056;-62
2022/04/22 05:55:26;;;;;;;19.83;10.88;;;8.60;99.90;;;;;;5054635;28;20507;-66
2022/04/22 05:57:54;;;;;;;15.85;8.82;;;8.60;99.90;;;;;;5065222;28;20064;-66
2022/04/22 06:00:24;;;;;;;16.65;8.77;;;8.70;99.90;;;;;;5064905;28;20040;-66
2022/04/22 06:02:53;;;;;;;16.80;9.38;;;8.70;99.90;;;;;;5052287;28;20492;-66
2022/04/22 06:05:21;;;;;;;16.42;8.65;;;8.70;99.90;;;;;;5048509;28;20425;-63
2022/04/22 06:10:37;;;;;;;16.17;8.75;;;8.80;99.90;;;;;;5070179;28;20633;-63
2022/04/22 06:13:06;;;;;;;15.18;8.77;;;8.80;99.90;;;;;;5072227;28;20057;-63
2022/04/22 06:15:34;;;;;;;14.52;8.70;;;8.90;99.90;;;;;;5066688;28;20040;-63
2022/04/22 06:18:02;;;;;;;16.67;8.30;;;8.90;99.90;;;;;;5057245;28;20400;-63
2022/04/22 06:20:30;;;;;;;13.80;8.60;;;9.00;99.90;;;;;;5052294;28;20041;-60
2022/04/22 06:22:58;;;;;;;23.77;8.90;;;9.00;99.90;;;;;;5051980;28;20269;-63
2022/04/22 06:25:27;;;;;;;16.77;9.38;;;9.00;99.90;;;;;;5051088;28;20045;-63
2022/04/22 06:27:56;;;;;;;21.23;9.27;;;9.10;99.90;;;;;;5059300;28;20166;-62
2022/04/22 06:30:24;;;;;;;21.15;8.90;;;9.10;99.90;;;;;;5055188;28;20049;-63
2022/04/22 06:32:53;;;;;;;20.35;8.60;;;9.10;99.90;;;;;;5051797;28;20140;-61
2022/04/22 06:35:22;;;;;;;22.20;8.77;;;9.10;99.90;;;;;;5051074;28;20048;-61
2022/04/22 06:37:52;;;;;;;14.85;8.63;;;9.20;99.90;;;;;;5048644;28;20037;-61
2022/04/22 06:45:55;;;;;;;21.20;9.52;;;9.20;99.90;;;;;;5071699;28;20060;-60
2022/04/22 06:48:32;;;;;;;18.02;8.05;;;9.30;99.90;;;;;;5061599;28;20041;-61
2022/04/22 06:51:20;;;;;;;14.10;8.18;;;9.30;99.90;;;;;;5053676;28;20056;-61
2022/04/22 06:53:50;;;;;;;18.98;8.10;;;9.40;99.90;;;;;;5050751;28;20400;-60
2022/04/22 06:56:21;;;;;;;;;;;9.40;99.90;;;;;;5049705;28;20052;-61
2022/04/22 06:58:50;;;;;;;15.38;8.00;;;9.40;99.90;;;;;;5045749;28;20979;-60
2022/04/22 07:01:19;;;;;;;13.85;7.57;;;9.40;99.90;;;;;;5055008;28;20511;-59
2022/04/22 07:04:07;;;;;;;11.53;7.43;;;9.40;99.90;;;;;;5061413;28;20044;-60
2022/04/22 07:06:35;;;;;;;14.77;7.72;;;9.50;99.90;;;;;;5067220;28;20488;-60
2022/04/22 07:09:04;;;;;;;18.48;7.28;;;9.50;99.90;;;;;;5070472;28;20064;-62
2022/04/22 07:11:34;;;;;;;13.52;7.20;;;9.50;99.90;;;;;;5066714;28;20573;-60
2022/04/22 07:14:02;;;;;;;12.10;7.45;;;9.50;99.90;;;;;;5050844;28;20064;-60
2022/04/22 07:16:30;;;;;;;16.52;7.68;;;9.50;99.90;;;;;;5065633;28;20055;-60
2022/04/22 07:18:59;;;;;;;14.63;6.85;;;9.60;99.90;;;;;;5052581;28;20052;-61
2022/04/22 07:21:28;;;;;;;11.43;7.18;;;9.60;99.90;;;;;;5061641;28;20052;-61
2022/04/22 07:23:58;;;;;;;17.73;7.53;;;9.60;99.90;;;;;;5067576;28;20041;-60
2022/04/22 07:26:27;;;;;;;18.73;7.90;;;9.60;99.90;;;;;;5059627;28;20064;-60
2022/04/22 07:28:58;;;;;;;14.63;7.00;;;9.60;99.90;;;;;;5071139;28;20055;-64
2022/04/22 07:31:31;;;;;;;17.02;7.18;;;9.70;99.90;;;;;;5036882;28;20052;-60
2022/04/22 07:33:59;;;;;;;11.32;7.20;;;9.70;99.90;;;;;;5060225;28;20045;-62
2022/04/22 07:36:28;;;;;;;15.77;7.63;;;9.70;99.90;;;;;;5054173;28;20056;-60
2022/04/22 07:38:56;;;;;;;19.17;7.00;;;9.70;99.90;;;;;;5080655;28;20476;-62
2022/04/22 07:41:27;;;;;;;15.77;8.05;;;9.70;99.90;;;;;;5088727;28;20052;-60
2022/04/22 07:46:47;;;;;;;23.67;6.68;;;9.80;99.90;;;;;;5050656;28;20049;-60
2022/04/22 07:49:16;;;;;;;14.18;6.85;;;9.80;99.90;;;;;;5053121;28;20485;-60
2022/04/22 07:51:44;;;;;;;15.82;7.40;;;9.90;99.90;;;;;;5053558;28;20060;-60
2022/04/22 07:54:14;;;;;;;19.65;7.35;;;9.90;99.90;;;;;;5051188;28;20049;-60
2022/04/22 07:56:43;;;;;;;20.00;7.88;;;9.90;99.90;;;;;;5066686;28;20041;-60
2022/04/22 07:59:11;;;;;;;19.85;8.50;;;9.90;99.90;;;;;;5068269;28;20055;-64
2022/04/22 08:01:39;;;;;;;14.27;7.38;;;10.00;99.90;;;;;;5053154;28;20122;-60
2022/04/22 08:04:09;;;;;;;20.25;7.80;;;10.00;99.90;;;;;;5053629;28;20047;-64
2022/04/22 08:06:38;;;;;;;17.02;7.25;;;10.10;99.90;;;;;;5054813;28;20041;-63
2022/04/22 08:09:06;;;;;;;14.80;7.95;;;10.20;99.90;;;;;;5056089;28;20496;-63
2022/04/22 08:11:35;;;;;;;20.92;7.85;;;10.20;99.90;;;;;;5049778;28;20072;-65
2022/04/22 08:14:03;;;;;;;21.65;7.50;;;10.30;99.90;;;;;;5049186;28;20045;-65
2022/04/22 08:16:31;;;;;;;21.83;7.95;;;10.40;99.90;;;;;;5048638;28;20049;-64
2022/04/22 08:18:58;;;;;;;20.75;8.40;;;10.40;99.90;;;;;;5062012;28;20067;-64
2022/04/22 08:21:33;;;;;;;16.60;8.18;;;10.50;99.90;;;;;;5050083;28;20072;-62
2022/04/22 08:24:03;;;;;;;16.20;7.60;;;10.50;99.90;;;;;;5050698;28;20507;-60
2022/04/22 08:26:32;;;;;;;13.45;7.30;;;10.60;99.90;;;;;;5048938;28;20048;-62
2022/04/22 08:29:00;;;;;;;22.57;7.70;;;10.60;99.90;;;;;;5063272;28;20041;-60
2022/04/22 08:31:28;;;;;;;11.52;7.15;;;10.60;99.90;;;;;;5065492;28;20053;-64
2022/04/22 08:33:57;;;;;;;16.25;7.95;;;10.70;99.90;;;;;;5066801;28;20052;-63
2022/04/22 08:36:28;;;;;;;16.67;8.60;;;10.70;99.90;;;;;;5064305;28;20393;-64
2022/04/22 08:38:57;;;;;;;16.77;8.05;;;10.80;99.90;;;;;;5048667;28;20041;-64
2022/04/22 08:41:26;;;;;;;14.68;7.35;;;10.80;99.90;;;;;;5049671;28;20057;-63
2022/04/22 08:43:59;;;;;;;17.70;7.37;;;10.90;99.90;;;;;;5048846;28;20412;-60
2022/04/22 08:52:02;;;;;;;17.05;7.90;;;11.00;99.90;;;;;;5066540;28;20041;-65
2022/04/22 08:54:32;;;;;;;18.35;8.15;;;11.00;99.90;;;;;;5054270;28;20041;-61
2022/04/22 08:57:00;;;;;;;18.55;7.93;;;11.10;99.90;;;;;;5049804;28;20045;-60
2022/04/22 08:59:27;;;;;;;18.70;7.38;;;11.20;99.90;;;;;;5055840;28;20043;-60
2022/04/22 09:01:58;;;;;;;20.27;7.35;;;11.30;99.90;;;;;;5054299;28;20052;-61
2022/04/22 09:04:28;;;;;;;17.20;7.70;;;11.40;99.90;;;;;;5068354;28;20045;-62
2022/04/22 09:06:58;;;;;;;16.35;7.10;;;11.50;99.90;;;;;;5065563;28;20055;-60
2022/04/22 09:09:26;;;;;;;17.02;7.20;;;11.50;99.90;;;;;;5052467;28;20052;-60
2022/04/22 09:12:07;;;;;;;12.95;6.68;;;11.70;99.90;;;;;;5047782;28;20534;-59
2022/04/22 09:14:35;;;;;;;14.25;6.75;;;11.80;99.90;;;;;;5064806;28;20484;-60
2022/04/22 09:17:03;;;;;;;18.20;7.00;;;11.90;99.90;;;;;;5052653;28;20037;-60
2022/04/22 09:19:35;;;;;;;14.45;7.95;;;12.00;99.90;;;;;;5068441;28;20056;-60
2022/04/22 09:22:03;;;;;;;12.48;6.68;;;12.10;99.90;;;;;;5063075;28;20044;-60
2022/04/22 09:24:31;;;;;;;13.90;6.68;;;12.20;99.90;;;;;;5051954;28;20059;-63
2022/04/22 09:27:10;;;;;;;18.73;6.50;;;12.30;99.90;;;;;;5048490;28;20357;-63
2022/04/22 09:29:53;;;;;;;13.10;6.55;;;12.40;99.90;;;;;;5062102;28;20507;-64
2022/04/22 09:32:25;;;;;;;14.38;6.57;;;12.40;99.90;;;;;;5048684;28;20056;-64
2022/04/22 09:34:56;;;;;;;14.65;7.28;;;12.60;99.90;;;;;;5045560;28;20041;-64
2022/04/22 09:42:59;;;;;;;21.08;5.70;;;13.20;99.90;;;;;;5049458;28;20045;-66
2022/04/22 09:45:38;;;;;;;21.75;6.78;;;13.40;99.90;;;;;;5050388;28;20660;-65
2022/04/22 09:48:19;;;;;;;17.07;6.13;;;13.50;99.90;;;;;;5050225;28;20044;-66
2022/04/22 09:50:55;;;;;;;15.88;6.47;;;13.50;99.90;;;;;;5052967;28;20060;-63
2022/04/22 09:53:34;;;;;;;16.48;6.05;;;13.60;99.90;;;;;;5054364;28;20051;-67
2022/04/22 09:56:09;;;;;;;12.98;6.28;;;13.70;99.90;;;;;;5058537;28;20463;-65
2022/04/22 09:58:37;;;;;;;14.85;5.88;;;13.70;99.90;;;;;;5069227;28;20055;-62
2022/04/22 10:01:06;;;;;;;19.80;6.32;;;13.70;99.90;;;;;;5066166;28;20073;-62
2022/04/22 10:03:36;;;;;;;10.50;6.38;;;13.70;99.90;;;;;;5053644;28;20043;-62
2022/04/22 10:06:07;;;;;;;14.10;6.40;;;13.70;99.90;;;;;;5051817;28;20051;-60
2022/04/22 10:08:36;;;;;;;15.25;6.30;;;13.70;99.90;;;;;;5062570;28;20064;-62
2022/04/22 10:11:06;;;;;;;14.45;5.90;;;13.80;99.90;;;;;;5057126;28;20931;-63
2022/04/22 10:13:44;;;;;;;11.32;6.95;;;13.90;99.90;;;;;;5048593;28;20579;-62
2022/04/22 10:16:13;;;;;;;9.23;4.50;;;13.90;99.90;;;;;;5055363;28;20033;-61
2022/04/22 10:18:42;;;;;;;15.18;4.65;;;13.90;99.90;;;;;;5054567;28;20041;-61
2022/04/22 10:21:10;;;;;;;12.98;4.72;;;13.90;99.90;;;;;;5051509;28;20499;-62
2022/04/22 10:23:47;;;;;;;10.27;4.68;;;14.00;99.90;;;;;;5067557;28;20484;-62
2022/04/22 10:26:15;;;;;;;10.48;4.85;;;14.10;99.90;;;;;;5057085;28;20496;-61
2022/04/22 10:28:46;;;;;;;10.93;5.13;;;14.20;99.90;;;;;;5050193;28;20056;-60
2022/04/22 10:31:33;;;;;;;8.95;5.00;;;14.40;99.90;;;;;;5061215;28;20064;-61
2022/04/22 10:34:06;;;;;;;10.18;5.13;;;14.40;99.90;;;;;;5060143;28;20048;-60
2022/04/22 10:36:34;;;;;;;11.63;4.85;;;14.30;99.90;;;;;;5059793;28;20068;-61
2022/04/22 10:39:02;;;;;;;10.98;5.57;;;14.30;99.90;;;;;;5059716;28;20447;-61
2022/04/22 10:41:43;;;;;;;11.90;4.95;;;14.20;99.90;;;;;;5049088;28;20049;-61
2022/04/22 10:47:13;;;;;;;12.10;4.85;;;14.20;99.90;;;;;;5055661;28;20441;-61
2022/04/22 10:49:43;;;;;;;15.20;4.15;;;14.10;99.90;;;;;;5045854;28;20049;-62
2022/04/22 10:52:17;;;;;;;11.02;4.60;;;14.20;99.90;;;;;;5047481;28;20045;-61
2022/04/22 10:54:51;;;;;;;8.52;3.90;;;14.20;99.90;;;;;;5059725;28;20531;-63
2022/04/22 10:57:23;;;;;;;9.80;4.00;;;14.20;99.90;;;;;;5065071;28;20500;-60
2022/04/22 11:00:14;;;;;;;;;;;14.30;99.90;;;;;;5055584;28;20048;-61
2022/04/22 11:02:43;;;;;;;13.05;4.07;;;14.40;99.40;;;;;;5046272;28;19927;-61
2022/04/22 11:05:20;;;;;;;12.15;3.78;;;14.60;98.70;;;;;;5063548;28;20045;-61
2022/04/22 11:07:50;;;;;;;11.75;3.60;;;14.90;98.70;;;;;;5050838;28;20492;-63
2022/04/22 11:10:18;;;;;;;9.20;3.33;;;15.20;98.90;;;;;;5052095;28;20036;-61
2022/04/22 11:13:00;;;;;;;14.48;3.40;;;15.60;98.80;;;;;;5044163;28;20044;-62
2022/04/22 11:15:43;;;;;;;8.20;2.63;;;15.90;97.30;;;;;;5049033;28;20411;-62
2022/04/22 11:18:12;;;;;;;7.03;2.70;;;16.10;94.20;;;;;;5046612;28;20468;-64
2022/04/22 11:20:51;;;;;;;7.23;2.30;;;16.30;93.40;;;;;;5055115;28;20043;-62
2022/04/22 11:23:19;;;;;;;10.30;2.10;;;16.50;92.70;;;;;;5049706;28;20045;-64
2022/04/22 11:25:47;;;;;;;11.45;2.28;;;16.60;90.00;;;;;;5055095;28;20032;-64
2022/04/22 11:28:16;;;;;;;15.43;2.53;;;16.70;88.40;;;;;;5052293;28;20037;-62
2022/04/22 11:30:43;;;;;;;6.50;1.80;;;16.70;87.10;;;;;;5056656;28;20491;-66
2022/04/22 11:33:26;;;;;;;3.75;1.50;;;16.80;85.70;;;;;;5051424;28;20036;-61
2022/04/22 11:35:58;;;;;;;11.18;1.90;;;16.90;83.50;;;;;;5045279;28;20077;-62
2022/04/22 11:38:26;;;;;;;11.32;2.13;;;16.90;82.80;;;;;;5059505;28;20040;-64
2022/04/22 11:40:54;;;;;;;6.78;1.85;;;17.00;82.20;;;;;;5052796;28;20040;-63
2022/04/22 11:43:21;;;;;;;8.45;1.27;;;17.20;80.00;;;;;;5050488;28;20048;-64
2022/04/22 11:45:50;;;;;;;7.35;1.48;;;17.30;78.90;;;;;;5054939;28;20130;-65
2022/04/22 11:48:23;;;;;;;5.32;1.70;;;17.50;76.50;;;;;;5049485;28;20063;-64
2022/04/22 11:50:54;;;;;;;8.65;1.50;;;17.80;73.20;;;;;;5056143;28;20051;-65
2022/04/22 11:53:26;;;;;;;6.97;1.10;;;18.10;73.40;;;;;;5049079;28;20388;-65
2022/04/22 11:55:54;;;;;;;10.38;1.38;;;18.40;72.70;;;;;;5056383;28;20049;-63
2022/04/22 11:58:27;;;;;;;5.30;1.13;;;18.60;71.00;;;;;;5055558;28;20496;-63
2022/04/22 12:06:42;;;;;;;7.97;0.90;;;19.20;65.80;;;;;;5058828;28;20041;-65
2022/04/22 12:09:10;;;;;;;15.68;1.35;;;19.40;63.90;;;;;;5060274;28;20059;-63
2022/04/22 12:11:41;;;;;;;9.63;1.30;;;19.50;62.40;;;;;;5048346;28;20041;-64
2022/04/22 12:14:10;;;;;;;10.35;1.33;;;19.60;62.90;;;;;;5066561;28;20044;-68
2022/04/22 12:16:38;;;;;;;8.67;1.50;;;19.80;62.20;;;;;;5055984;28;20049;-65
2022/04/22 12:19:09;;;;;;;13.45;1.65;;;20.00;61.20;;;;;;5059329;28;20480;-66
2022/04/22 12:21:37;;;;;;;2.60;1.08;;;20.10;60.50;;;;;;5055922;28;20052;-65
2022/04/22 12:24:06;;;;;;;12.63;1.83;;;20.20;60.40;;;;;;5045398;28;20488;-61
2022/04/22 12:26:47;;;;;;;8.73;1.00;;;20.30;60.40;;;;;;5052951;28;20489;-64
2022/04/22 12:29:22;;;;;;;1.95;0.90;;;20.40;59.50;;;;;;5051697;28;20408;-64
2022/04/22 12:31:52;;;;;;;10.05;1.00;;;20.50;59.50;;;;;;5052336;28;20043;-63
2022/04/22 12:34:28;;;;;;;3.90;1.20;;;20.60;60.30;;;;;;5052374;28;21651;-65
2022/04/22 12:36:58;;;;;;;14.75;1.50;;;20.90;59.90;;;;;;5058445;28;20317;-64
2022/04/22 12:39:41;;;;;;;3.67;1.17;;;21.10;58.40;;;;;;5064908;28;20040;-64
2022/04/22 12:42:18;;;;;;;5.35;0.98;;;21.10;57.60;;;;;;5046433;28;20060;-64
2022/04/22 12:53:37;;;;;;;7.90;1.23;;;21.40;55.90;;;;;;5050853;28;20068;-64
2022/04/22 12:56:05;;;;;;;7.07;1.52;;;21.40;56.40;;;;;;5062770;28;20485;-60
2022/04/22 12:58:50;;;;;;;4.53;0.90;;;21.40;57.60;;;;;;5053594;28;20052;-61
2022/04/22 13:01:20;;;;;;;8.68;0.90;;;21.70;56.30;;;;;;5055997;28;20047;-64
2022/04/22 13:03:48;;;;;;;4.25;1.02;;;21.80;55.30;;;;;;5059184;28;20045;-61
2022/04/22 13:06:35;;;;;;;2.55;1.00;;;21.90;53.80;;;;;;5054788;28;20586;-61
2022/04/22 13:09:03;;;;;;;4.68;1.40;;;21.80;54.10;;;;;;5051927;28;20045;-61
2022/04/22 13:11:31;;;;;;;2.70;0.85;;;21.80;54.80;;;;;;5046002;28;20045;-61
2022/04/22 13:13:59;;;;;;;7.05;1.27;;;21.80;54.80;;;;;;5052111;28;20412;-63
2022/04/22 13:16:27;;;;;;;5.75;1.08;;;21.90;54.20;;;;;;5051788;28;20507;-61
2022/04/22 13:18:56;;;;;;;2.95;0.90;;;22.10;55.00;;;;;;5065033;28;20055;-62
2022/04/22 13:21:23;;;;;;;5.03;1.40;;;22.30;55.10;;;;;;5049141;28;20048;-64
2022/04/22 13:23:51;;;;;;;8.18;1.10;;;22.60;53.70;;;;;;5051888;28;20060;-62
2022/04/22 13:26:20;;;;;;;5.20;1.20;;;22.70;54.00;;;;;;5065519;28;20044;-61
2022/04/22 13:28:48;;;;;;;5.55;1.05;;;22.70;53.10;;;;;;5070131;28;20048;-61
2022/04/22 13:31:16;;;;;;;5.85;1.00;;;22.60;53.50;;;;;;5062494;28;20045;-61
2022/04/22 13:33:43;;;;;;;3.13;0.95;;;22.30;52.80;;;;;;5053237;28;20045;-61
2022/04/22 13:36:11;;;;;;;2.65;0.70;;;21.80;53.90;;;;;;5051522;28;20053;-63
2022/04/22 13:38:39;;;;;;;6.10;0.98;;;21.50;54.40;;;;;;5055145;28;20594;-64
2022/04/22 13:41:07;;;;;;;1.65;0.88;;;21.10;53.10;;;;;;5053137;28;20765;-64
2022/04/22 13:43:35;;;;;;;6.38;1.50;;;20.70;54.30;;;;;;5043262;28;20060;-65
2022/04/22 13:54:22;;;;;;;3.35;1.10;;;20.60;55.60;;;;;;5065848;28;20060;-62
2022/04/22 13:56:50;;;;;;;1.58;0.55;;;21.00;54.20;;;;;;5059722;28;20041;-62
2022/04/22 13:59:18;;;;;;;4.13;1.00;;;21.30;53.20;;;;;;5069889;28;20037;-63
2022/04/22 14:01:45;;;;;;;4.22;0.90;;;21.50;52.90;;;;;;5061767;28;20036;-61
2022/04/22 14:04:13;;;;;;;3.75;1.17;;;21.70;52.70;;;;;;5066944;28;20036;-62
2022/04/22 14:06:42;;;;;;;5.43;1.02;;;21.80;53.20;;;;;;5061082;28;20060;-66
2022/04/22 14:09:11;;;;;;;1.13;0.88;;;21.90;53.20;;;;;;5062319;28;20296;-63
2022/04/22 14:11:38;;;;;;;5.28;0.80;;;22.10;52.90;;;;;;5056759;28;20045;-61